Station Historical Data
Daily Summary for March 14, 2019 Units:  Metric    English   Both
« Previous Day
Next Day »
Daily Weekly Monthly Yearly Custom
  High: Low: Average:
Temperature: -17.8 °C -16.8 °C -12.5 °C
Dew Point: -17.8 °C -20.4 °C -17.8 °C
Humidity: Humidity % 23 % 58 %
Wind Speed: 0 km/h 0 km/h 15 km/h
Wind Gust: 0 km/h - -
Wind:- - West
Pressure: 0 hPa 34093.6 hPa -
Precipitation: 0 mm    
Historical Graphs
 
 
Tabular Data for March 14, 2019
Time Temperature Dew Point Pressure Wind Wind Speed Wind Gust Humidity Rainfall Rate (Hourly) solar Conditions
-17.8 °C -17.8 °C 0 hPa Calm     Humidity % 0 mm SolarRadiationWatts/m^2 W/m2 Conditions
00:04 -15.4 °C -16.5 °C 34300.2 hPa NNW 9 km/h 6 km/h 87 % 0 mm 0.00 W/m2 CLR
00:08 -15.4 °C -16.5 °C 34300.2 hPa NNW 7.7 km/h 5.6 km/h 87 % 0 mm 0.00 W/m2 CLR
00:14 -15.4 °C -16.5 °C 34303.6 hPa NNW 9 km/h 5.5 km/h 87 % 0 mm 0.00 W/m2 CLR
00:19 -15.4 °C -16.6 °C 34310.3 hPa NNW 6 km/h 4.7 km/h 87 % 0 mm 0.00 W/m2 CLR
00:23 -15.4 °C -16.6 °C 34313.7 hPa NNW 9 km/h 7.2 km/h 87 % 0 mm 0.00 W/m2 CLR
00:29 -15.5 °C -16.6 °C 34310.3 hPa NNW 7.7 km/h 5.1 km/h 87 % 0 mm 0.00 W/m2 CLR
00:34 -15.6 °C -16.6 °C 34313.7 hPa NNW 9 km/h 6 km/h 87 % 0 mm 0.00 W/m2 CLR
00:38 -15.6 °C -16.7 °C 34317.1 hPa NNW 6 km/h 4.3 km/h 87 % 0 mm 0.00 W/m2 CLR
00:44 -15.6 °C -16.7 °C 34317.1 hPa NW 9 km/h 6.3 km/h 87 % 0 mm 0.00 W/m2 CLR
00:49 -15.6 °C -16.6 °C 34323.9 hPa West 9 km/h 7.2 km/h 88 % 0 mm 0.00 W/m2 CLR
00:53 -15.5 °C -16.6 °C 34320.5 hPa West 9 km/h 5 km/h 88 % 0 mm 0.00 W/m2 CLR
00:59 -15.5 °C -16.6 °C 34323.9 hPa West 10.3 km/h 7.2 km/h 88 % 0 mm 0.00 W/m2 CLR
01:04 -15.5 °C -16.6 °C 34323.9 hPa West 10.3 km/h 6.8 km/h 88 % 0 mm 0.00 W/m2 CLR
01:08 -15.6 °C -16.6 °C 34320.5 hPa West 7.7 km/h 5 km/h 88 % 0 mm 0.00 W/m2 CLR
01:14 -15.6 °C -16.6 °C 34317.1 hPa West 6 km/h 3.7 km/h 88 % 0 mm 0.00 W/m2 CLR
01:19 -15.6 °C -16.6 °C 34323.9 hPa West 6 km/h   88 % 0 mm 0.00 W/m2 CLR
01:23 -15.6 °C -16.6 °C 34323.9 hPa Calm     88 % 0 mm 0.00 W/m2 CLR
01:28 -15.7 °C -16.7 °C 34323.9 hPa Calm     88 % 0 mm 0.00 W/m2 CLR
01:33 -15.7 °C -16.7 °C 34320.5 hPa West 9 km/h 7.2 km/h 88 % 0 mm 0.00 W/m2 CLR
01:39 -15.6 °C -16.6 °C 34320.5 hPa Calm     88 % 0 mm 0.00 W/m2 CLR
01:43 -15.7 °C -16.7 °C 34320.5 hPa Calm     88 % 0 mm 0.00 W/m2 CLR
01:48 -15.7 °C -16.7 °C 34320.5 hPa West 3.1 km/h 2.6 km/h 88 % 0 mm 0.00 W/m2 CLR
01:54 -15.7 °C -16.7 °C 34327.3 hPa West 3.1 km/h 2.3 km/h 88 % 0 mm 0.00 W/m2 CLR
01:58 -15.7 °C -16.7 °C 34330.7 hPa West 6 km/h 2.9 km/h 88 % 0 mm 0.00 W/m2 CLR
02:03 -15.8 °C -16.8 °C 34330.7 hPa West 3.1 km/h 2.6 km/h 88 % 0 mm 0.00 W/m2 CLR
02:09 -15.8 °C -16.8 °C 34327.3 hPa West 6 km/h 3.1 km/h 88 % 0 mm 0.00 W/m2 CLR
02:13 -15.9 °C -16.8 °C 34323.9 hPa West 6 km/h 3.9 km/h 88 % 0 mm 0.00 W/m2 CLR
02:18 -15.9 °C -16.9 °C 34330.7 hPa West 9 km/h 5.1 km/h 88 % 0 mm 0.00 W/m2 CLR
02:24 -15.9 °C -16.9 °C 34327.3 hPa West 9 km/h 5.5 km/h 88 % 0 mm 0.00 W/m2 CLR
02:28 -15.9 °C -16.9 °C 34334 hPa West 9 km/h 6.3 km/h 88 % 0 mm 0.00 W/m2 CLR
02:33 -16 °C -16.9 °C 34334 hPa West 6 km/h 3.4 km/h 89 % 0 mm 0.00 W/m2 CLR
02:39 -16 °C -16.9 °C 34334 hPa West 9 km/h 5 km/h 89 % 0 mm 0.00 W/m2 CLR
02:43 -15.9 °C -16.9 °C 34330.7 hPa West 6 km/h 3.4 km/h 89 % 0 mm 0.00 W/m2 CLR
02:48 -15.9 °C -16.7 °C 34327.3 hPa West 5.1 km/h 2.6 km/h 90 % 0 mm 0.00 W/m2 CLR
02:54 -15.8 °C -16.7 °C 34320.5 hPa West 6 km/h 3.9 km/h 90 % 0 mm 0.00 W/m2 CLR
02:59 -15.8 °C -16.6 °C 34320.5 hPa West 5.1 km/h 2.3 km/h 90 % 0 mm 0.00 W/m2 CLR
03:03 -15.8 °C -16.6 °C 34320.5 hPa Calm     90 % 0 mm 0.00 W/m2 CLR
03:09 -15.8 °C -16.6 °C 34327.3 hPa West 6 km/h 4.2 km/h 90 % 0 mm 0.00 W/m2 CLR
03:13 -15.8 °C -16.6 °C 34327.3 hPa West 5.1 km/h 3.1 km/h 90 % 0 mm 0.00 W/m2 CLR
03:19 -15.8 °C -16.6 °C 34327.3 hPa West 6 km/h 3.9 km/h 90 % 0 mm 0.00 W/m2 CLR
03:24 -15.8 °C -16.6 °C 34327.3 hPa West 3.1 km/h   90 % 0 mm 0.00 W/m2 CLR
03:28 -15.8 °C -16.6 °C 34323.9 hPa Calm     90 % 0 mm 0.00 W/m2 CLR
03:34 -15.8 °C -16.6 °C 34320.5 hPa Calm     90 % 0 mm 0.00 W/m2 CLR
03:39 -15.8 °C -16.6 °C 34320.5 hPa West 3.1 km/h 2.1 km/h 90 % 0 mm 0.00 W/m2 CLR
03:43 -15.8 °C -16.6 °C 34323.9 hPa West 3.1 km/h 2.6 km/h 90 % 0 mm 0.00 W/m2 CLR
03:49 -15.8 °C -16.6 °C 34327.3 hPa Calm     90 % 0 mm 0.00 W/m2 CLR
03:53 -15.8 °C -16.7 °C 34323.9 hPa West 3.1 km/h 2.1 km/h 90 % 0 mm 0.00 W/m2 CLR
03:58 -15.9 °C -16.7 °C 34323.9 hPa West 9 km/h 6 km/h 90 % 0 mm 0.00 W/m2 CLR
04:03 -16 °C -16.9 °C 34330.7 hPa West 7.7 km/h 4.2 km/h 89 % 0 mm 0.00 W/m2 CLR
04:08 -16.2 °C -17.1 °C 34327.3 hPa SSW 11.9 km/h 5.6 km/h 89 % 0 mm 0.00 W/m2 CLR
04:13 -16.3 °C -17.2 °C 34330.7 hPa SW 12.9 km/h 11.6 km/h 89 % 0 mm 0.00 W/m2 CLR
04:18 -16.4 °C -17.3 °C 34327.3 hPa WSW 15.6 km/h 8.9 km/h 89 % 0 mm 0.00 W/m2 CLR
04:23 -16.5 °C -17.4 °C 34334 hPa WSW 12.9 km/h 9.7 km/h 89 % 0 mm 0.00 W/m2 CLR
04:28 -16.5 °C -17.3 °C 34334 hPa WSW 6 km/h 2.3 km/h 90 % 0 mm 0.00 W/m2 CLR
04:33 -16.5 °C -17.3 °C 34334 hPa WSW 7.7 km/h 3.7 km/h 90 % 0 mm 0.00 W/m2 CLR
04:38 -16.5 °C -17.3 °C 34334 hPa WSW 6 km/h 3.7 km/h 90 % 0 mm 0.00 W/m2 CLR
04:43 -16.5 °C -17.2 °C 34334 hPa WSW 10.3 km/h 8.2 km/h 91 % 0 mm 0.00 W/m2 CLR
04:48 -16.4 °C -17.2 °C 34337.4 hPa West 12.9 km/h 9 km/h 91 % 0 mm 0.00 W/m2 CLR
04:54 -16.4 °C -17.2 °C 34334 hPa West 12.9 km/h 9.3 km/h 91 % 0 mm 0.00 W/m2 CLR
04:58 -16.4 °C -17.1 °C 34334 hPa West 11.9 km/h 9.3 km/h 91 % 0 mm 0.00 W/m2 CLR
05:03 -16.4 °C -17.1 °C 34337.4 hPa WSW 15 km/h 9.7 km/h 91 % 0 mm 0.00 W/m2 CLR
05:09 -16.3 °C -17.1 °C 34334 hPa WSW 10.3 km/h 7.7 km/h 91 % 0 mm 0.00 W/m2 CLR
05:13 -16.3 °C -17.1 °C 34334 hPa WSW 10.3 km/h 7.7 km/h 91 % 0 mm 0.00 W/m2 CLR
05:18 -16.3 °C -16.9 °C 34334 hPa WSW 10.3 km/h 7.7 km/h 92 % 0 mm 0.00 W/m2 CLR
05:24 -16.2 °C -16.9 °C 34330.7 hPa WSW 10.3 km/h 8.2 km/h 92 % 0 mm 0.00 W/m2 CLR
05:28 -16.2 °C -16.8 °C 34330.7 hPa WSW 9 km/h 3.7 km/h 92 % 0 mm 0.00 W/m2 CLR
05:34 -16.2 °C -16.8 °C 34334 hPa WSW 12.9 km/h 9.8 km/h 92 % 0 mm 0.00 W/m2 CLR
05:39 -16.2 °C -16.8 °C 34330.7 hPa West 11.9 km/h 9 km/h 92 % 0 mm 0.00 W/m2 CLR
05:43 -16.2 °C -16.8 °C 34334 hPa West 3.1 km/h 0.8 km/h 92 % 0 mm 0.00 W/m2 CLR
05:49 -16.2 °C -16.8 °C 34334 hPa Calm     92 % 0 mm 0.00 W/m2 CLR
05:54 -16.2 °C -16.8 °C 34337.4 hPa Calm     92 % 0 mm 0.00 W/m2 CLR
05:58 -16.2 °C -16.8 °C 34344.2 hPa West 2.6 km/h 0.8 km/h 92 % 0 mm 0.00 W/m2 CLR
06:04 -16.2 °C -17 °C 34337.4 hPa Calm     91 % 0 mm 0.00 W/m2 CLR
06:09 -16.2 °C -16.8 °C 34337.4 hPa West 10.3 km/h 9 km/h 92 % 0 mm 0.00 W/m2 CLR
06:14 -16.2 °C -16.8 °C 34337.4 hPa WSW 12.9 km/h 9.3 km/h 92 % 0 mm 0.00 W/m2 CLR
06:19 -16.2 °C -16.8 °C 34344.2 hPa WSW 10.3 km/h 7.2 km/h 92 % 0 mm 0.00 W/m2 CLR
06:23 -16.2 °C -16.8 °C 34337.4 hPa SW 10.3 km/h 7.6 km/h 92 % 0 mm 0.00 W/m2 CLR
06:28 -16.2 °C -17 °C 34340.8 hPa SW 7.7 km/h 3.9 km/h 91 % 0 mm 0.00 W/m2 CLR
06:33 -16.3 °C -17.1 °C 34344.2 hPa WSW 9 km/h 6 km/h 91 % 0 mm 0.00 W/m2 CLR
06:39 -16.4 °C -17.2 °C 34344.2 hPa WSW 12.9 km/h 8.9 km/h 91 % 0 mm 5.00 W/m2 CLR
06:43 -16.5 °C -17.3 °C 34344.2 hPa WSW 12.9 km/h 9.8 km/h 91 % 0 mm 7.00 W/m2 CLR
06:48 -16.6 °C -17.4 °C 34340.8 hPa WSW 15.6 km/h 11.4 km/h 91 % 0 mm 9.00 W/m2 CLR
06:54 -16.7 °C -17.4 °C 34334 hPa WSW 15 km/h 10.1 km/h 91 % 0 mm 14.00 W/m2 SCT
06:58 -16.8 °C -17.6 °C 34334 hPa WSW 12.9 km/h 10.9 km/h 91 % 0 mm 18.00 W/m2 SCT
07:03 -16.8 °C -17.6 °C 34334 hPa West 12.9 km/h 8.9 km/h 91 % 0 mm 25.00 W/m2 SCT
07:09 -16.7 °C -17.3 °C 34327.3 hPa WSW 10.3 km/h 5.5 km/h 92 % 0 mm 25.00 W/m2 SCT
07:13 -16.6 °C -17.2 °C 34327.3 hPa WSW 10.3 km/h 9.7 km/h 92 % 0 mm 32.00 W/m2 SCT
07:18 -16.5 °C -17.1 °C 34330.7 hPa WSW 10.3 km/h 7.6 km/h 92 % 0 mm 49.00 W/m2 SCT
07:24 -16.4 °C -17.1 °C 34337.4 hPa WSW 9 km/h 5 km/h 92 % 0 mm 63.00 W/m2 FEW
07:28 -16.3 °C -17 °C 34334 hPa SW 6 km/h 3.7 km/h 92 % 0 mm 76.00 W/m2 FEW
07:33 -16.3 °C -16.9 °C 34334 hPa SW 3.1 km/h 2.1 km/h 92 % 0 mm 90.00 W/m2 FEW
07:39 -16.2 °C -16.8 °C 34330.7 hPa SW 6 km/h 2.3 km/h 92 % 0 mm 107.00 W/m2 FEW
07:43 -16.1 °C -16.7 °C 34340.8 hPa WNW 7.7 km/h 3.4 km/h 93 % 0 mm 120.00 W/m2 FEW
07:49 -16 °C -16.7 °C 34340.8 hPa West 9 km/h 6 km/h 92 % 0 mm 132.00 W/m2 FEW
07:54 -15.9 °C -16.6 °C 34337.4 hPa WSW 17.9 km/h 9.7 km/h 92 % 0 mm 135.00 W/m2 FEW
07:58 -15.9 °C -16.6 °C 34337.4 hPa West 17.9 km/h 10.9 km/h 92 % 0 mm 135.00 W/m2 FEW
08:04 -15.9 °C -16.6 °C 34340.8 hPa WSW 15.6 km/h 9.3 km/h 92 % 0 mm 146.00 W/m2 FEW
08:09 -15.9 °C -16.5 °C 34334 hPa NW 12.9 km/h 7.2 km/h 92 % 0 mm 178.00 W/m2 FEW
08:13 -15.8 °C -16.6 °C 34334 hPa WNW 17.9 km/h 10.6 km/h 91 % 0 mm 199.00 W/m2 FEW
08:19 -15.7 °C -16.4 °C 34330.7 hPa West 9 km/h 4.3 km/h 91 % 0 mm 216.00 W/m2 CLR
08:24 -15.6 °C -16.4 °C 34327.3 hPa WNW 12.9 km/h 10.1 km/h 90 % 0 mm 236.00 W/m2 CLR
08:28 -15.4 °C -16.3 °C 34323.9 hPa West 17.9 km/h 8.5 km/h 89 % 0 mm 248.00 W/m2 CLR
08:34 -15.3 °C -16.3 °C 34327.3 hPa WSW 18.2 km/h 14.5 km/h 88 % 0 mm 264.00 W/m2 CLR
08:39 -15.2 °C -16.4 °C 34327.3 hPa West 20.9 km/h 13.7 km/h 86 % 0 mm 276.00 W/m2 CLR
08:43 -15.2 °C -16.4 °C 34330.7 hPa West 25.9 km/h 16.6 km/h 85 % 0 mm 287.00 W/m2 CLR
08:49 -15.1 °C -16.4 °C 34330.7 hPa WSW 15 km/h 10.6 km/h 85 % 0 mm 297.00 W/m2 CLR
08:53 -15 °C -16.3 °C 34334 hPa WSW 18.2 km/h 11.6 km/h 85 % 0 mm 304.00 W/m2 CLR
08:58 -14.9 °C -16.3 °C 34334 hPa West 12.9 km/h 11.6 km/h 84 % 0 mm 309.00 W/m2 CLR
09:03 -14.8 °C -16.2 °C 34334 hPa West 15.6 km/h 12.4 km/h 84 % 0 mm 313.00 W/m2 CLR
09:08 -14.7 °C -16.2 °C 34334 hPa WSW 10.3 km/h 6.9 km/h 83 % 0 mm 316.00 W/m2 CLR
09:13 -14.6 °C -16.1 °C 34334 hPa WSW 12.9 km/h 9.7 km/h 83 % 0 mm 311.00 W/m2 FEW
09:18 -14.3 °C -15.8 °C 34334 hPa WSW 11.9 km/h 7.2 km/h 83 % 0 mm 288.00 W/m2 FEW
09:23 -14.1 °C -15.7 °C 34337.4 hPa WSW 20.8 km/h 14 km/h 82 % 0 mm 308.00 W/m2 FEW
09:28 -14 °C -15.6 °C 34337.4 hPa SW 18.2 km/h 11.4 km/h 82 % 0 mm 315.00 W/m2 FEW
09:33 -13.7 °C -15.5 °C 34337.4 hPa WSW 20.9 km/h 14.2 km/h 80 % 0 mm 313.00 W/m2 FEW
09:39 -13.5 °C -15.5 °C 34334 hPa SW 29.8 km/h 23 km/h 78 % 0 mm 304.00 W/m2 FEW
09:43 -13.3 °C -15.6 °C 34330.7 hPa WSW 20.9 km/h 12.9 km/h 76 % 0 mm 336.00 W/m2 FEW
09:48 -13.2 °C -15.7 °C 34327.3 hPa SW 29.8 km/h 15.6 km/h 73 % 0 mm 357.00 W/m2 FEW
09:54 -13 °C -15.7 °C 34327.3 hPa WNW 25.9 km/h 12.4 km/h 72 % 0 mm 378.00 W/m2 FEW
09:58 -12.9 °C -15.7 °C 34330.7 hPa WSW 38.8 km/h 25.9 km/h 70 % 0 mm 403.00 W/m2 FEW
10:03 -12.7 °C -15.9 °C 34330.7 hPa West 29.8 km/h 20.9 km/h 68 % 0 mm 427.00 W/m2 FEW
10:09 -12.6 °C -15.9 °C 34327.3 hPa SW 31.1 km/h 22.5 km/h 66 % 0 mm 417.00 W/m2 FEW
10:13 -12.4 °C -15.8 °C 34323.9 hPa WNW 17.9 km/h 10.9 km/h 66 % 0 mm 462.00 W/m2 FEW
10:18 -12.3 °C -16.1 °C 34320.5 hPa SW 31.1 km/h 23.3 km/h 63 % 0 mm 499.00 W/m2 CLR
10:24 -12.2 °C -16.2 °C 34320.5 hPa WSW 23.8 km/h 12.9 km/h 61 % 0 mm 515.00 W/m2 CLR
10:28 -12.1 °C -16.2 °C 34323.9 hPa WSW 18.2 km/h 14 km/h 60 % 0 mm 536.00 W/m2 CLR
10:34 -11.9 °C -16.3 °C 34320.5 hPa SW 33.6 km/h 24.1 km/h 58 % 0 mm 545.00 W/m2 CLR
10:39 -11.8 °C -16.4 °C 34313.7 hPa WSW 33.6 km/h 25.4 km/h 57 % 0 mm 559.00 W/m2 CLR
10:43 -11.8 °C -16.3 °C 34313.7 hPa West 23.8 km/h 15.6 km/h 57 % 0 mm 564.00 W/m2 CLR
10:49 -11.7 °C -16.3 °C 34313.7 hPa SW 26.9 km/h 19.2 km/h 56 % 0 mm 503.00 W/m2 CLR
10:54 -11.5 °C -16.3 °C 34307 hPa WSW 26.9 km/h 20.4 km/h 55 % 0 mm 512.00 W/m2 CLR
10:59 -11.4 °C -16.7 °C 34307 hPa WSW 35.7 km/h 23.8 km/h 52 % 0 mm 550.00 W/m2 CLR
11:04 -11.3 °C -16.8 °C 34303.6 hPa NW 33.6 km/h 19.5 km/h 51 % 0 mm 548.00 W/m2 CLR
11:09 -11.3 °C -16.7 °C 34307 hPa WNW 31.1 km/h 19.2 km/h 51 % 0 mm 545.00 W/m2 CLR
11:14 -11.1 °C -16.9 °C 34310.3 hPa WSW 26.9 km/h 17.9 km/h 49 % 0 mm 548.00 W/m2 CLR
11:19 -11 °C -16.8 °C 34303.6 hPa SW 29.8 km/h 20.8 km/h 49 % 0 mm 524.00 W/m2 CLR
11:23 -10.9 °C -17.1 °C 34307 hPa WSW 29.8 km/h 20.3 km/h 47 % 0 mm 538.00 W/m2 FEW
11:28 -10.8 °C -16.8 °C 34300.2 hPa West 29.8 km/h 19.6 km/h 48 % 0 mm 561.00 W/m2 FEW
11:33 -10.7 °C -16.8 °C 34296.8 hPa WSW 31.1 km/h 24.3 km/h 47 % 0 mm 508.00 W/m2 CLR
11:38 -10.5 °C -16.7 °C 34290 hPa WSW 33.6 km/h 15.8 km/h 47 % 0 mm 557.00 W/m2 FEW
11:44 -10.4 °C -17.1 °C 34293.4 hPa SW 31.1 km/h 22 km/h 44 % 0 mm 496.00 W/m2 FEW
11:48 -10.4 °C -16.9 °C 34290 hPa WSW 25.9 km/h 13.2 km/h 45 % 0 mm 515.00 W/m2 FEW
11:53 -10.2 °C -17.1 °C 34290 hPa SW 33.6 km/h 21.2 km/h 43 % 0 mm 476.00 W/m2 FEW
11:59 -10.2 °C -17.6 °C 34290 hPa SW 35.7 km/h 23.8 km/h 40 % 0 mm 482.00 W/m2 FEW
12:03 -10.2 °C -17.7 °C 34290 hPa West 29.8 km/h 15.3 km/h 40 % 0 mm 492.00 W/m2 FEW
12:08 -10.2 °C -17.4 °C 34283.3 hPa WSW 23.8 km/h 14.8 km/h 41 % 0 mm 526.00 W/m2 FEW
12:14 -10.1 °C -17.9 °C 34283.3 hPa WSW 31.1 km/h 23 km/h 38 % 0 mm 561.00 W/m2 FEW
12:18 -9.9 °C -17.8 °C 34279.9 hPa WSW 31.1 km/h 22.9 km/h 38 % 0 mm 475.00 W/m2 FEW
12:23 -9.9 °C -17.7 °C 34273.1 hPa WSW 35.7 km/h 18.8 km/h 38 % 0 mm 473.00 W/m2 FEW
12:29 -9.8 °C -18.1 °C 34279.9 hPa West 29.8 km/h 19.2 km/h 36 % 0 mm 504.00 W/m2 FEW
12:33 -9.8 °C -18.5 °C 34276.5 hPa WSW 29.8 km/h 22.2 km/h 34 % 0 mm 501.00 W/m2 FEW
12:39 -9.8 °C -18.2 °C 34269.7 hPa West 31.1 km/h 18.3 km/h 35 % 0 mm 489.00 W/m2 FEW
12:44 -9.8 °C -18.4 °C 34269.7 hPa WSW 31.1 km/h 22.5 km/h 34 % 0 mm 545.00 W/m2 FEW
12:48 -9.7 °C -18.4 °C 34266.3 hPa NW 28.5 km/h 22.2 km/h 34 % 0 mm 464.00 W/m2 FEW
12:54 -9.6 °C -18.6 °C 34266.3 hPa WSW 18.2 km/h 12.4 km/h 33 % 0 mm 496.00 W/m2 FEW
12:59 -9.5 °C -18.9 °C 34256.2 hPa SW 29.8 km/h 15.8 km/h 31 % 0 mm 464.00 W/m2 FEW
13:03 -9.3 °C -18.6 °C 34256.2 hPa West 18.2 km/h 9.3 km/h 32 % 0 mm 415.00 W/m2 FEW
13:09 -9.3 °C -19.3 °C 34242.6 hPa West 25.9 km/h 19.2 km/h 29 % 0 mm 436.00 W/m2 SCT
13:14 -9.3 °C -19.1 °C 34242.6 hPa WSW 18.2 km/h 12.2 km/h 30 % 0 mm 415.00 W/m2 SCT
13:19 -9.3 °C -18.8 °C 34239.2 hPa SW 23.8 km/h 13.2 km/h 31 % 0 mm 439.00 W/m2 SCT
13:24 -9.3 °C -19 °C 34235.8 hPa WSW 18.2 km/h 9.7 km/h 30 % 0 mm 434.00 W/m2 SCT
13:29 -9.3 °C -19.3 °C 34235.8 hPa SSW 25.9 km/h 16.3 km/h 29 % 0 mm 401.00 W/m2 FEW
13:34 -9.3 °C -19.3 °C 34225.7 hPa WNW 18.2 km/h 11.4 km/h 29 % 0 mm 450.00 W/m2 FEW
13:39 -9.3 °C -19.5 °C 34215.5 hPa WSW 23.8 km/h 19.2 km/h 28 % 0 mm 478.00 W/m2 FEW
13:44 -9.3 °C -19.5 °C 34208.8 hPa West 17.9 km/h 9.8 km/h 28 % 0 mm 473.00 W/m2 FEW
13:49 -9.2 °C -19.7 °C 34205.4 hPa West 18.2 km/h 11.9 km/h 27 % 0 mm 471.00 W/m2 FEW
13:54 -9.1 °C -19.9 °C 34198.6 hPa SW 17.9 km/h 10.1 km/h 26 % 0 mm 424.00 W/m2 FEW
13:58 -9.1 °C -19.9 °C 34202 hPa WNW 18.2 km/h 11.6 km/h 26 % 0 mm 369.00 W/m2 FEW
14:03 -9.1 °C -19.6 °C 34198.6 hPa WSW 20.9 km/h 15.3 km/h 27 % 0 mm 348.00 W/m2 SCT
14:08 -9.1 °C -19.9 °C 34198.6 hPa WSW 23.8 km/h 14.5 km/h 26 % 0 mm 350.00 W/m2 SCT
14:14 -9.1 °C -19.9 °C 34198.6 hPa NW 15.6 km/h 6.9 km/h 26 % 0 mm 380.00 W/m2 SCT
14:18 -9.1 °C -19.9 °C 34195.2 hPa WSW 23.3 km/h 15.6 km/h 26 % 0 mm 420.00 W/m2 SCT
14:23 -9.1 °C -19.9 °C 34188.4 hPa West 26.9 km/h 17.1 km/h 26 % 0 mm 417.00 W/m2 FEW
14:29 -9.1 °C -19.9 °C 34188.4 hPa WSW 20.9 km/h 16.1 km/h 26 % 0 mm 397.00 W/m2 FEW
14:33 -9.1 °C -19.6 °C 34185.1 hPa West 23.8 km/h 14 km/h 27 % 0 mm 348.00 W/m2 FEW
14:38 -9 °C -19.8 °C 34181.7 hPa West 29.8 km/h 18.3 km/h 26 % 0 mm 327.00 W/m2 FEW
14:44 -9.1 °C -19.9 °C 34181.7 hPa WNW 20.9 km/h 16.3 km/h 26 % 0 mm 353.00 W/m2 FEW
14:48 -9.2 °C -19.9 °C 34181.7 hPa West 17.9 km/h 11.6 km/h 26 % 0 mm 390.00 W/m2 FEW
14:53 -9.1 °C -19.7 °C 34178.3 hPa NW 17.9 km/h 12.7 km/h 27 % 0 mm 473.00 W/m2 FEW
14:59 -9.1 °C -19.6 °C 34181.7 hPa WNW 18.2 km/h 15.6 km/h 27 % 0 mm 325.00 W/m2 CLR
15:03 -9.1 °C -19.6 °C 34174.9 hPa WNW 9 km/h 5.1 km/h 27 % 0 mm 427.00 W/m2 CLR
15:09 -9 °C -19.8 °C 34164.7 hPa West 15.6 km/h 13.7 km/h 26 % 0 mm 334.00 W/m2 FEW
15:14 -8.9 °C -19.8 °C 34158 hPa WNW 20.9 km/h 16.1 km/h 26 % 0 mm 308.00 W/m2 FEW
15:18 -8.9 °C -19.8 °C 34151.2 hPa NW 17.9 km/h 6.4 km/h 26 % 0 mm 306.00 W/m2 FEW
15:24 -8.9 °C -19.8 °C 34147.8 hPa WNW 20.8 km/h 10.1 km/h 26 % 0 mm 316.00 W/m2 FEW
15:29 -9 °C -20.1 °C 34147.8 hPa West 23.8 km/h 17.1 km/h 25 % 0 mm 329.00 W/m2 FEW
15:33 -9.1 °C -19.9 °C 34141 hPa WSW 17.9 km/h 10.6 km/h 26 % 0 mm 239.00 W/m2 FEW
15:39 -9 °C -19.8 °C 34137.7 hPa West 12.9 km/h 10.6 km/h 26 % 0 mm 301.00 W/m2 FEW
15:44 -8.9 °C -20.1 °C 34137.7 hPa NW 20.9 km/h 14.8 km/h 25 % 0 mm 380.00 W/m2 FEW
15:48 -8.9 °C -19.8 °C 34134.3 hPa NW 18.2 km/h 12.4 km/h 26 % 0 mm 371.00 W/m2 CLR
15:54 -8.8 °C -19.9 °C 34130.9 hPa NW 23.3 km/h 14 km/h 25 % 0 mm 417.00 W/m2 CLR
15:59 -8.8 °C -20.2 °C 34127.5 hPa WNW 23.3 km/h 14.2 km/h 24 % 0 mm 434.00 W/m2 CLR
16:03 -8.7 °C -20.2 °C 34124.1 hPa NNW 20.9 km/h 8 km/h 24 % 0 mm 469.00 W/m2 CLR
16:09 -8.7 °C -19.8 °C 34117.3 hPa NNW 18.2 km/h 10.1 km/h 25 % 0 mm 383.00 W/m2 CLR
16:14 -8.6 °C -20.1 °C 34120.7 hPa NNW 23.8 km/h 15.6 km/h 24 % 0 mm 302.00 W/m2 CLR
16:18 -8.6 °C -20.1 °C 34124.1 hPa NNW 31.1 km/h 20.8 km/h 24 % 0 mm 290.00 W/m2 CLR
16:23 -8.7 °C -20.1 °C 34124.1 hPa WNW 18.2 km/h 14 km/h 24 % 0 mm 381.00 W/m2 CLR
16:28 -8.6 °C -20.1 °C 34120.7 hPa NNW 20.9 km/h 16.6 km/h 24 % 0 mm 329.00 W/m2 CLR
16:34 -8.6 °C -20.4 °C 34110.6 hPa NW 26.9 km/h 21.6 km/h 23 % 0 mm 327.00 W/m2 CLR
16:38 -8.6 °C -20.1 °C 34114 hPa NW 15.6 km/h 10.3 km/h 24 % 0 mm 267.00 W/m2 CLR
16:43 -8.6 °C -20.1 °C 34114 hPa North 20.9 km/h 14.5 km/h 24 % 0 mm 241.00 W/m2 CLR
16:49 -8.6 °C -20.4 °C 34114 hPa NW 17.9 km/h 11.9 km/h 23 % 0 mm 207.00 W/m2 CLR
16:53 -8.6 °C -20.1 °C 34114 hPa NNW 23.3 km/h 13.7 km/h 24 % 0 mm 183.00 W/m2 CLR
16:58 -8.6 °C -20.1 °C 34117.3 hPa NW 23.8 km/h 17.9 km/h 24 % 0 mm 132.00 W/m2 CLR
17:04 -8.7 °C -20.2 °C 34114 hPa NW 12.9 km/h 9.7 km/h 24 % 0 mm 121.00 W/m2 FEW
17:08 -8.7 °C -20.2 °C 34114 hPa WNW 18.2 km/h 12.9 km/h 24 % 0 mm 144.00 W/m2 FEW
17:13 -8.8 °C -20.2 °C 34107.2 hPa NNW 11.9 km/h 7.2 km/h 24 % 0 mm 130.00 W/m2 CLR
17:19 -8.8 °C -19.9 °C 34103.8 hPa NNW 15.6 km/h 12.4 km/h 25 % 0 mm 121.00 W/m2 CLR
17:22 -8.8 °C -19.7 °C 34097 hPa North 12.9 km/h 8.2 km/h 26 % 0 mm 107.00 W/m2 CLR
17:28 -8.9 °C -19.7 °C 34103.8 hPa NNW 15.6 km/h 11.4 km/h 26 % 0 mm 84.00 W/m2 CLR
17:33 -8.9 °C -19.8 °C 34100.4 hPa North 12.9 km/h 7.7 km/h 26 % 0 mm 76.00 W/m2 CLR
17:39 -9 °C -19.8 °C 34097 hPa NNW 10.3 km/h 6.8 km/h 26 % 0 mm 77.00 W/m2 CLR
17:43 -9 °C -19.8 °C 34097 hPa North 9 km/h 6.3 km/h 26 % 0 mm 69.00 W/m2 CLR
17:49 -9 °C -19.8 °C 34100.4 hPa NNW 10.3 km/h 6.4 km/h 26 % 0 mm 32.00 W/m2 CLR
17:54 -9.1 °C -19.6 °C 34100.4 hPa NNW 6 km/h 1.3 km/h 27 % 0 mm 30.00 W/m2 CLR
17:58 -9.1 °C -19.6 °C 34097 hPa Calm     27 % 0 mm 19.00 W/m2 CLR
18:04 -9.1 °C -19.3 °C 34100.4 hPa Calm     28 % 0 mm 12.00 W/m2 CLR
18:09 -9.1 °C -19.6 °C 34107.2 hPa Calm     27 % 0 mm 7.00 W/m2 CLR
18:14 -9.1 °C -19.7 °C 34110.6 hPa NNW 6 km/h 3.1 km/h 27 % 0 mm 5.00 W/m2 CLR
18:19 -9.2 °C -19.4 °C 34103.8 hPa NNW 3.1 km/h 1.8 km/h 28 % 0 mm 0.00 W/m2 CLR
18:24 -9.3 °C -19.3 °C 34107.2 hPa NNW 3.1 km/h 1 km/h 29 % 0 mm 0.00 W/m2 CLR
18:28 -9.3 °C -19.3 °C 34117.3 hPa NNW 6 km/h 2.9 km/h 29 % 0 mm 0.00 W/m2 CLR
18:33 -9.4 °C -19.7 °C 34114 hPa NNW 6 km/h 2.3 km/h 28 % 0 mm 0.00 W/m2 CLR
18:38 -9.5 °C -19.4 °C 34117.3 hPa NNW 9 km/h 3.9 km/h 29 % 0 mm 0.00 W/m2 CLR
18:43 -9.6 °C -19.5 °C 34114 hPa NNW 6 km/h 2.9 km/h 29 % 0 mm 0.00 W/m2 CLR
18:48 -9.6 °C -19.6 °C 34114 hPa NNW 6 km/h 3.1 km/h 29 % 0 mm 0.00 W/m2 CLR
18:53 -9.7 °C -19.6 °C 34114 hPa North 9 km/h 5.1 km/h 29 % 0 mm 0.00 W/m2 CLR
18:58 -9.7 °C -19.4 °C 34114 hPa North 6 km/h 2.9 km/h 30 % 0 mm 0.00 W/m2 CLR
19:03 -9.8 °C -19.5 °C 34114 hPa North 3.1 km/h   30 % 0 mm 0.00 W/m2 CLR
19:09 -9.8 °C -19.5 °C 34114 hPa North 3.1 km/h 1.8 km/h 30 % 0 mm 0.00 W/m2 CLR
19:13 -9.9 °C -19.3 °C 34114 hPa Calm     31 % 0 mm 0.00 W/m2 CLR
19:18 -9.9 °C -19.1 °C 34107.2 hPa North 6 km/h 4.3 km/h 32 % 0 mm 0.00 W/m2 CLR
19:24 -10.1 °C -18.9 °C 34114 hPa North 6 km/h 2.6 km/h 33 % 0 mm 0.00 W/m2 CLR
19:28 -10.1 °C -19 °C 34114 hPa North 3.1 km/h   33 % 0 mm 0.00 W/m2 CLR
19:33 -10.2 °C -19.1 °C 34117.3 hPa SW 7.7 km/h 4.2 km/h 33 % 0 mm 0.00 W/m2 CLR
19:39 -10.2 °C -18.9 °C 34114 hPa SW 9 km/h 5.5 km/h 34 % 0 mm 0.00 W/m2 CLR
19:43 -10.3 °C -18.9 °C 34110.6 hPa SW 5.1 km/h 1.3 km/h 34 % 0 mm 0.00 W/m2 CLR
19:48 -10.3 °C -19.2 °C 34097 hPa SW 11.9 km/h 8.5 km/h 33 % 0 mm 0.00 W/m2 CLR
19:54 -10.3 °C -19.2 °C 34093.6 hPa WSW 11.9 km/h 6.8 km/h 33 % 0 mm 0.00 W/m2 CLR
19:58 -10.2 °C -19.1 °C 34107.2 hPa West 9 km/h 6 km/h 33 % 0 mm 0.00 W/m2 CLR
20:04 -10.2 °C -19.1 °C 34110.6 hPa West 9 km/h 4.7 km/h 33 % 0 mm 0.00 W/m2 CLR
20:09 -10.2 °C -19.1 °C 34100.4 hPa West 9 km/h 5.6 km/h 33 % 0 mm 0.00 W/m2 CLR
20:13 -10.2 °C -18.9 °C 34100.4 hPa WSW 9 km/h 6.3 km/h 34 % 0 mm 0.00 W/m2 CLR
20:19 -10.3 °C -18.9 °C 34107.2 hPa WSW 9 km/h 4.7 km/h 34 % 0 mm 0.00 W/m2 CLR
20:24 -10.3 °C -18.9 °C 34103.8 hPa West 6 km/h 3.4 km/h 34 % 0 mm 0.00 W/m2 CLR
20:28 -10.3 °C -18.8 °C 34103.8 hPa West 6 km/h 2.9 km/h 35 % 0 mm 0.00 W/m2 CLR
20:34 -10.4 °C -18.8 °C 34110.6 hPa WNW 10.3 km/h 6.8 km/h 35 % 0 mm 0.00 W/m2 CLR
20:39 -10.4 °C -18.7 °C 34110.6 hPa West 9 km/h 5.5 km/h 36 % 0 mm 0.00 W/m2 CLR
20:43 -10.5 °C -18.7 °C 34110.6 hPa West 9 km/h 6.4 km/h 36 % 0 mm 0.00 W/m2 CLR
20:49 -10.6 °C -18.3 °C 34114 hPa West 10.3 km/h 6.4 km/h 38 % 0 mm 0.00 W/m2 CLR
20:54 -10.7 °C -18.4 °C 34114 hPa West 12.9 km/h 9.3 km/h 38 % 0 mm 0.00 W/m2 CLR
20:59 -10.7 °C -18.2 °C 34114 hPa West 12.9 km/h 8.5 km/h 39 % 0 mm 0.00 W/m2 CLR
21:03 -10.8 °C -18.3 °C 34110.6 hPa WNW 10.3 km/h 7.6 km/h 39 % 0 mm 0.00 W/m2 CLR
21:08 -10.8 °C -18.2 °C 34110.6 hPa West 18.2 km/h 11.9 km/h 40 % 0 mm 0.00 W/m2 CLR
21:13 -10.9 °C -18 °C 34110.6 hPa WSW 15.6 km/h 12.9 km/h 41 % 0 mm 0.00 W/m2 CLR
21:18 -10.9 °C -18.1 °C 34110.6 hPa West 11.9 km/h 8.2 km/h 41 % 0 mm 0.00 W/m2 CLR
21:23 -11 °C -17.9 °C 34114 hPa WSW 9 km/h 6.3 km/h 42 % 0 mm 0.00 W/m2 CLR
21:28 -11.1 °C -18 °C 34110.6 hPa West 10.3 km/h 5 km/h 42 % 0 mm 0.00 W/m2 CLR
21:33 -11.2 °C -17.9 °C 34110.6 hPa WSW 10.3 km/h 7.6 km/h 43 % 0 mm 0.00 W/m2 CLR
21:38 -11.2 °C -18 °C 34114 hPa SW 15.6 km/h 8 km/h 43 % 0 mm 0.00 W/m2 CLR
21:43 -11.3 °C -17.9 °C 34110.6 hPa West 10.3 km/h 8.2 km/h 44 % 0 mm 0.00 W/m2 CLR
21:48 -11.4 °C -17.8 °C 34114 hPa West 12.9 km/h 6 km/h 45 % 0 mm 0.00 W/m2 CLR
21:53 -11.5 °C -17.7 °C 34114 hPa West 15.6 km/h 11.4 km/h 46 % 0 mm 0.00 W/m2 CLR
21:59 -11.6 °C -17.6 °C 34110.6 hPa WNW 15 km/h 8.2 km/h 47 % 0 mm 0.00 W/m2 CLR
22:03 -11.6 °C -17.6 °C 34114 hPa NW 17.9 km/h 12.2 km/h 47 % 0 mm 0.00 W/m2 CLR
22:09 -11.5 °C -17.4 °C 34117.3 hPa West 15.6 km/h 10.6 km/h 48 % 0 mm 0.00 W/m2 CLR
22:13 -11.5 °C -17.4 °C 34110.6 hPa WSW 23.3 km/h 14.8 km/h 48 % 0 mm 0.00 W/m2 CLR
22:18 -11.4 °C -17.2 °C 34107.2 hPa West 26.9 km/h 17.5 km/h 49 % 0 mm 0.00 W/m2 CLR
22:24 -11.4 °C -17 °C 34103.8 hPa West 23.8 km/h 17.9 km/h 50 % 0 mm 0.00 W/m2 CLR
22:28 -11.4 °C -17 °C 34103.8 hPa West 28.5 km/h 19.5 km/h 50 % 0 mm 0.00 W/m2 CLR
22:33 -11.4 °C -16.8 °C 34107.2 hPa West 29.8 km/h 17.1 km/h 51 % 0 mm 0.00 W/m2 CLR
22:39 -11.6 °C -16.8 °C 34103.8 hPa West 33.6 km/h 16.1 km/h 52 % 0 mm 0.00 W/m2 CLR
22:44 -11.7 °C -16.6 °C 34107.2 hPa WSW 25.9 km/h 16.9 km/h 54 % 0 mm 0.00 W/m2 CLR
22:48 -11.8 °C -16.7 °C 34107.2 hPa West 25.9 km/h 18.2 km/h 54 % 0 mm 0.00 W/m2 CLR
22:54 -11.8 °C -16.7 °C 34107.2 hPa WSW 26.9 km/h 17.4 km/h 55 % 0 mm 0.00 W/m2 CLR
22:59 -11.9 °C -16.6 °C 34103.8 hPa WSW 31.1 km/h 17.1 km/h 56 % 0 mm 0.00 W/m2 CLR
23:04 -12.1 °C -16.7 °C 34097 hPa SW 20.9 km/h 16.1 km/h 56 % 0 mm 0.00 W/m2 CLR
23:09 -12.1 °C -16.7 °C 34100.4 hPa WNW 15.6 km/h 9.3 km/h 57 % 0 mm 0.00 W/m2 CLR
23:14 -12.2 °C -16.7 °C 34107.2 hPa West 18.2 km/h 11.9 km/h 57 % 0 mm 0.00 W/m2 CLR
23:19 -12.3 °C -16.8 °C 34110.6 hPa West 12.9 km/h 9.3 km/h 57 % 0 mm 0.00 W/m2 CLR
23:24 -12.3 °C -16.7 °C 34114 hPa WNW 15.6 km/h 11.4 km/h 58 % 0 mm 0.00 W/m2 CLR
23:29 -12.3 °C -16.7 °C 34117.3 hPa WSW 18.2 km/h 6.9 km/h 58 % 0 mm 0.00 W/m2 CLR
23:33 -12.3 °C -16.7 °C 34120.7 hPa WSW 18.2 km/h 13.2 km/h 58 % 0 mm 0.00 W/m2 CLR
23:38 -12.4 °C -16.8 °C 34120.7 hPa WSW 23.8 km/h 15.3 km/h 58 % 0 mm 0.00 W/m2 CLR
23:43 -12.4 °C -16.8 °C 34117.3 hPa SW 23.8 km/h 17.1 km/h 58 % 0 mm 0.00 W/m2 CLR
23:48 -12.5 °C -16.7 °C 34114 hPa SW 23.8 km/h 16.6 km/h 59 % 0 mm 0.00 W/m2 CLR
23:53 -12.6 °C -16.7 °C 34110.6 hPa WSW 28.5 km/h 17.1 km/h 60 % 0 mm 0.00 W/m2 CLR
23:58 -12.7 °C -16.6 °C 34110.6 hPa West 25.9 km/h 15.8 km/h 61 % 0 mm 0.00 W/m2 CLR
Juneau County Weather
Compliments of Weather Underground - 3.5 mb